createdAt,value
2023-04-15T00:01:19.879Z,73.24
2023-04-15T00:03:49.131Z,73.72
2023-04-15T00:06:17.912Z,73.90
2023-04-15T00:08:46.787Z,73.25
2023-04-15T00:11:18.505Z,72.70
2023-04-15T00:13:47.381Z,72.99
2023-04-15T00:16:16.471Z,73.09
2023-04-15T00:18:44.831Z,72.32
2023-04-15T00:21:15.307Z,73.44
2023-04-15T00:23:44.268Z,72.77
2023-04-15T00:26:13.489Z,72.38
2023-04-15T00:28:44.876Z,71.87
2023-04-15T00:31:14.396Z,72.31
2023-04-15T00:33:42.794Z,72.88
2023-04-15T00:36:12.395Z,72.47
2023-04-15T00:38:41.020Z,72.33
2023-04-15T00:41:10.749Z,72.84
2023-04-15T00:43:39.543Z,72.28
2023-04-15T00:46:11.245Z,72.94
2023-04-15T00:48:40.137Z,72.16
2023-04-15T00:51:09.834Z,72.99
2023-04-15T00:53:38.231Z,72.99
2023-04-15T00:56:08.150Z,72.98
2023-04-15T00:58:37.247Z,72.19
2023-04-15T01:01:06.507Z,72.85
2023-04-15T01:03:37.128Z,72.87
2023-04-15T01:06:06.776Z,72.80
2023-04-15T01:08:35.645Z,72.19
2023-04-15T01:11:05.132Z,72.57
2023-04-15T01:13:35.382Z,72.60
2023-04-15T01:16:04.438Z,72.26
2023-04-15T01:18:33.358Z,72.34
2023-04-15T01:21:03.923Z,72.99
2023-04-15T01:23:33.305Z,72.47
2023-04-15T01:26:04.500Z,72.58
2023-04-15T01:28:33.053Z,72.60
2023-04-15T01:31:09.376Z,73.57
2023-04-15T01:33:42.414Z,72.85
2023-04-15T01:36:11.856Z,73.42
2023-04-15T01:38:40.745Z,72.19
2023-04-15T01:41:11.313Z,72.02
2023-04-15T01:43:39.920Z,72.17
2023-04-15T01:46:11.359Z,72.53
2023-04-15T01:48:39.710Z,72.81
2023-04-15T01:51:08.507Z,73.16
2023-04-15T01:53:37.470Z,72.47
2023-04-15T01:56:07.363Z,72.88
2023-04-15T01:58:37.457Z,72.85
2023-04-15T02:01:07.147Z,72.41
2023-04-15T02:03:35.677Z,73.18
2023-04-15T02:06:06.332Z,72.31
2023-04-15T02:08:34.964Z,72.93
2023-04-15T02:11:04.240Z,72.40
2023-04-15T02:13:33.723Z,72.41
2023-04-15T02:16:05.268Z,72.23
2023-04-15T02:18:33.811Z,72.85
2023-04-15T02:21:02.830Z,72.17
2023-04-15T02:23:31.184Z,72.75
2023-04-15T02:26:00.099Z,71.75
2023-04-15T02:28:28.739Z,72.24
2023-04-15T02:30:59.413Z,71.19
2023-04-15T02:33:29.461Z,71.49
2023-04-15T02:35:58.197Z,71.57
2023-04-15T02:38:28.290Z,71.67
2023-04-15T02:40:57.749Z,71.44
2023-04-15T02:43:26.398Z,72.17
2023-04-15T02:45:55.159Z,71.60
2023-04-15T02:48:23.591Z,71.51
2023-04-15T02:50:53.923Z,71.50
2023-04-15T02:53:22.275Z,72.03
2023-04-15T02:55:51.976Z,71.49
2023-04-15T02:58:20.640Z,72.26
2023-04-15T03:05:22.218Z,71.32
2023-04-15T03:07:54.854Z,72.27
2023-04-15T03:10:23.593Z,72.18
2023-04-15T03:12:52.500Z,71.34
2023-04-15T03:15:23.917Z,71.78
2023-04-15T03:17:55.092Z,71.13
2023-04-15T03:20:23.821Z,71.86
2023-04-15T03:22:54.516Z,71.57
2023-04-15T03:25:25.207Z,71.06
2023-04-15T03:27:54.940Z,71.49
2023-04-15T03:30:23.716Z,71.97
2023-04-15T03:32:53.045Z,71.12
2023-04-15T03:35:21.913Z,71.94
2023-04-15T03:37:51.102Z,71.65
2023-04-15T03:40:23.222Z,71.61
2023-04-15T03:42:52.202Z,71.54
2023-04-15T03:45:20.661Z,72.08
2023-04-15T03:47:49.904Z,71.02
2023-04-15T03:50:18.840Z,71.52
2023-04-15T03:52:48.709Z,71.60
2023-04-15T03:55:20.280Z,71.39
2023-04-15T03:57:49.029Z,71.69
2023-04-15T04:00:17.538Z,71.58
2023-04-15T04:02:47.198Z,72.02
2023-04-15T04:05:15.876Z,71.67
2023-04-15T04:07:44.913Z,71.19
2023-04-15T04:10:13.780Z,71.69
2023-04-15T04:12:44.384Z,71.51
2023-04-15T04:15:13.370Z,71.29
2023-04-15T04:17:42.548Z,72.10
2023-04-15T04:20:11.444Z,72.26
2023-04-15T04:22:40.983Z,72.33
2023-04-15T04:25:11.317Z,72.40
2023-04-15T04:27:41.052Z,71.91
2023-04-15T04:30:12.752Z,72.18
2023-04-15T04:32:41.742Z,71.82
2023-04-15T04:35:11.607Z,72.74
2023-04-15T04:37:40.710Z,71.97
2023-04-15T04:40:10.864Z,72.06
2023-04-15T04:42:40.767Z,71.89
2023-04-15T04:45:11.386Z,72.15
2023-04-15T04:47:40.319Z,72.06
2023-04-15T04:50:10.801Z,72.10
2023-04-15T04:52:40.714Z,71.83
2023-04-15T04:55:09.787Z,71.36
2023-04-15T04:57:39.629Z,72.17
2023-04-15T05:00:12.751Z,72.29
2023-04-15T05:02:42.566Z,71.53
2023-04-15T05:05:15.311Z,72.40
2023-04-15T05:07:44.893Z,72.51
2023-04-15T05:10:14.904Z,72.73
2023-04-15T05:12:43.610Z,71.92
2023-04-15T05:15:14.377Z,72.54
2023-04-15T05:17:43.458Z,72.63
2023-04-15T05:20:12.926Z,72.70
2023-04-15T05:22:41.604Z,73.10
2023-04-15T05:25:10.593Z,71.90
2023-04-15T05:27:40.302Z,72.21
2023-04-15T05:30:11.617Z,72.79
2023-04-15T05:32:44.096Z,71.44
2023-04-15T05:35:12.908Z,71.55
2023-04-15T05:37:41.599Z,72.49
2023-04-15T05:40:11.200Z,71.48
2023-04-15T05:42:40.288Z,71.24
2023-04-15T05:45:09.772Z,71.18
2023-04-15T05:47:38.889Z,71.62
2023-04-15T05:50:10.161Z,71.47
2023-04-15T05:52:38.877Z,71.33
2023-04-15T05:55:08.204Z,71.18
2023-04-15T05:57:37.904Z,71.32
2023-04-15T06:00:08.189Z,71.08
2023-04-15T06:02:39.826Z,71.22
2023-04-15T06:05:11.947Z,71.44
2023-04-15T06:07:40.659Z,70.92
2023-04-15T06:10:10.196Z,70.83
2023-04-15T06:12:39.151Z,70.38
2023-04-15T06:15:10.093Z,70.47
2023-04-15T06:17:39.275Z,70.84
2023-04-15T06:20:10.595Z,69.85
2023-04-15T06:22:40.145Z,69.80
2023-04-15T06:25:09.539Z,69.82
2023-04-15T06:27:39.080Z,69.98
2023-04-15T06:30:08.618Z,69.75
2023-04-15T06:32:37.286Z,69.28
2023-04-15T06:35:06.541Z,69.20
2023-04-15T06:37:36.959Z,69.63
2023-04-15T06:40:06.072Z,69.47
2023-04-15T06:42:35.244Z,68.85
2023-04-15T06:45:03.969Z,68.68
2023-04-15T06:47:32.669Z,68.58
2023-04-15T06:50:01.302Z,68.47
2023-04-15T06:52:30.304Z,68.58
2023-04-15T06:55:01.059Z,67.91
2023-04-15T06:57:30.197Z,68.58
2023-04-15T06:59:58.604Z,68.12
2023-04-15T07:02:27.724Z,68.29
2023-04-15T07:04:57.118Z,67.67
2023-04-15T07:07:26.625Z,67.60
2023-04-15T07:09:55.329Z,67.55
2023-04-15T07:12:25.572Z,67.43
2023-04-15T07:14:54.379Z,67.09
2023-04-15T07:17:23.219Z,66.51
2023-04-15T07:19:51.671Z,65.91
2023-04-15T07:22:20.771Z,66.00
2023-04-15T07:24:49.445Z,65.85
2023-04-15T07:27:18.587Z,65.33
2023-04-15T07:29:49.342Z,64.84
2023-04-15T07:32:17.987Z,65.05
2023-04-15T07:34:46.546Z,64.74
2023-04-15T07:37:16.882Z,64.69
2023-04-15T07:39:45.340Z,64.38
2023-04-15T07:42:14.245Z,64.36
2023-04-15T07:44:42.888Z,63.98
2023-04-15T07:47:13.646Z,64.05
2023-04-15T07:49:43.464Z,63.66
2023-04-15T07:52:12.821Z,63.97
2023-04-15T07:54:41.187Z,63.89
2023-04-15T07:57:09.931Z,63.78
2023-04-15T07:59:38.570Z,63.58
2023-04-15T08:02:08.674Z,63.24
2023-04-15T08:04:39.630Z,63.02
2023-04-15T08:07:09.202Z,63.17
2023-04-15T08:09:38.055Z,63.10
2023-04-15T08:12:09.881Z,62.88
2023-04-15T08:14:38.965Z,62.43
2023-04-15T08:17:08.009Z,62.25
2023-04-15T08:19:37.723Z,62.28
2023-04-15T08:22:10.490Z,61.70
2023-04-15T08:24:46.755Z,61.87
2023-04-15T08:27:15.538Z,61.11
2023-04-15T08:29:45.517Z,60.90
2023-04-15T08:32:15.038Z,60.59
2023-04-15T08:34:43.568Z,59.86
2023-04-15T08:37:14.366Z,60.04
2023-04-15T08:39:42.769Z,60.65
2023-04-15T08:42:18.019Z,61.07
2023-04-15T08:44:48.011Z,61.12
2023-04-15T08:47:21.845Z,61.04
2023-04-15T08:49:54.149Z,60.78
2023-04-15T08:52:26.610Z,60.99
2023-04-15T08:54:59.882Z,60.52
2023-04-15T08:57:29.993Z,61.18
2023-04-15T08:59:58.824Z,61.27
2023-04-15T09:02:28.618Z,61.35
2023-04-15T09:04:58.937Z,61.11
2023-04-15T09:07:29.254Z,61.25
2023-04-15T09:09:57.900Z,61.70
2023-04-15T09:12:26.878Z,61.92
2023-04-15T09:14:55.713Z,62.34
2023-04-15T09:17:26.779Z,62.39
2023-04-15T09:20:10.516Z,62.51
2023-04-15T09:22:41.682Z,62.88
2023-04-15T09:25:33.435Z,63.25
2023-04-15T09:28:03.968Z,63.20
2023-04-15T09:30:32.314Z,63.41
2023-04-15T09:33:11.067Z,63.94
2023-04-15T09:35:39.796Z,63.45
2023-04-15T09:38:11.376Z,63.84
2023-04-15T09:40:41.486Z,63.64
2023-04-15T09:43:13.756Z,63.74
2023-04-15T09:45:49.356Z,64.03
2023-04-15T09:48:20.990Z,63.48
2023-04-15T09:50:50.670Z,63.11
2023-04-15T09:53:22.440Z,63.51
2023-04-15T09:55:55.684Z,63.05
2023-04-15T09:58:26.611Z,63.33
2023-04-15T10:00:57.582Z,62.79
2023-04-15T10:03:29.218Z,62.95
2023-04-15T10:05:59.133Z,63.33
2023-04-15T10:08:31.658Z,62.68
2023-04-15T10:11:00.196Z,62.79
2023-04-15T10:13:33.062Z,63.24
2023-04-15T10:16:06.736Z,63.66
2023-04-15T10:18:37.575Z,63.65
2023-04-15T10:21:07.104Z,63.49
2023-04-15T10:23:38.184Z,63.80
2023-04-15T10:26:07.213Z,64.01
2023-04-15T10:28:36.412Z,64.43
2023-04-15T10:31:07.627Z,64.13
2023-04-15T10:33:36.949Z,64.31
2023-04-15T10:36:06.620Z,64.34
2023-04-15T10:38:43.551Z,64.47
2023-04-15T10:41:21.071Z,64.17
2023-04-15T10:43:53.133Z,63.58
2023-04-15T10:46:24.205Z,63.61
2023-04-15T10:48:54.248Z,63.93
2023-04-15T10:51:30.106Z,62.61
2023-04-15T10:54:01.712Z,63.64
2023-04-15T10:56:31.559Z,63.37
2023-04-15T10:59:02.295Z,63.37
2023-04-15T11:01:53.142Z,63.26
2023-04-15T11:04:55.460Z,63.16
2023-04-15T11:07:41.348Z,63.31
2023-04-15T11:10:55.346Z,62.53
2023-04-15T11:13:30.706Z,62.93
2023-04-15T11:16:01.996Z,62.67
2023-04-15T11:18:33.149Z,62.72
2023-04-15T11:21:04.543Z,62.62
2023-04-15T11:23:38.860Z,62.73
2023-04-15T11:26:10.003Z,62.36
2023-04-15T11:28:42.290Z,62.43
2023-04-15T11:31:13.437Z,61.86
2023-04-15T11:33:49.004Z,61.46
2023-04-15T11:36:18.128Z,60.71
2023-04-15T11:38:49.110Z,60.04
2023-04-15T11:41:22.464Z,60.51
2023-04-15T11:43:53.085Z,59.87
2023-04-15T11:46:22.941Z,60.07
2023-04-15T11:48:51.576Z,60.26
2023-04-15T11:51:22.107Z,60.07
2023-04-15T11:53:52.154Z,59.98
2023-04-15T11:56:22.488Z,60.45
2023-04-15T11:58:57.137Z,59.60
2023-04-15T12:01:32.984Z,59.73
2023-04-15T12:04:02.449Z,59.42
2023-04-15T12:06:35.155Z,59.75
2023-04-15T12:09:10.032Z,58.46
2023-04-15T12:11:44.796Z,57.83
2023-04-15T12:14:22.684Z,57.03
2023-04-15T12:16:54.389Z,56.77
2023-04-15T12:19:27.732Z,55.64
2023-04-15T12:22:01.562Z,55.12
2023-04-15T12:24:33.069Z,55.04
2023-04-15T12:27:05.195Z,54.97
2023-04-15T12:29:36.715Z,54.84
2023-04-15T12:32:10.537Z,55.15
2023-04-15T12:34:40.637Z,55.86
2023-04-15T12:37:11.031Z,56.14
2023-04-15T12:39:42.019Z,56.81
2023-04-15T12:42:11.828Z,57.24
2023-04-15T12:44:41.872Z,57.18
2023-04-15T12:47:11.923Z,57.66
2023-04-15T12:49:41.340Z,58.09
2023-04-15T12:52:10.241Z,58.83
2023-04-15T12:54:38.860Z,58.80
2023-04-15T12:57:07.969Z,59.03
2023-04-15T12:59:36.908Z,59.52
2023-04-15T13:02:07.680Z,59.76
2023-04-15T13:04:36.234Z,60.08
2023-04-15T13:07:04.995Z,59.78
2023-04-15T13:09:33.446Z,60.45
2023-04-15T13:12:04.587Z,60.76
2023-04-15T13:14:33.031Z,60.82
2023-04-15T13:17:02.925Z,61.42
2023-04-15T13:19:33.250Z,61.76
2023-04-15T13:22:03.983Z,62.02
2023-04-15T13:24:32.889Z,62.30
2023-04-15T13:27:01.668Z,62.24
2023-04-15T13:29:30.468Z,62.71
2023-04-15T13:31:59.186Z,62.87
2023-04-15T13:34:27.615Z,62.74
2023-04-15T13:36:58.392Z,63.25
2023-04-15T13:39:26.741Z,63.37
2023-04-15T13:41:56.124Z,63.31
2023-04-15T13:44:24.603Z,63.40
2023-04-15T13:46:55.043Z,63.19
2023-04-15T13:49:23.477Z,63.67
2023-04-15T13:51:52.707Z,63.82
2023-04-15T13:54:22.748Z,63.87
2023-04-15T13:56:51.845Z,63.71
2023-04-15T13:59:20.474Z,63.91
2023-04-15T14:01:49.676Z,63.79
2023-04-15T14:04:18.116Z,64.07
2023-04-15T14:06:47.509Z,63.82
2023-04-15T14:09:16.257Z,64.03
2023-04-15T14:11:46.661Z,64.16
2023-04-15T14:14:16.315Z,63.35
2023-04-15T14:16:45.347Z,64.01
2023-04-15T14:19:14.026Z,63.62
2023-04-15T14:21:42.893Z,63.95
2023-04-15T14:24:12.592Z,63.92
2023-04-15T14:26:41.459Z,63.78
2023-04-15T14:29:11.886Z,64.32
2023-04-15T14:31:41.196Z,64.22
2023-04-15T14:34:11.596Z,64.30
2023-04-15T14:36:41.918Z,64.60
2023-04-15T14:39:10.604Z,64.39
2023-04-15T14:41:39.289Z,64.42
2023-04-15T14:44:09.741Z,64.34
2023-04-15T14:46:41.229Z,64.03
2023-04-15T14:49:10.738Z,64.25
2023-04-15T14:51:41.649Z,64.27
2023-04-15T14:54:10.715Z,64.03
2023-04-15T14:56:39.672Z,64.09
2023-04-15T14:59:08.293Z,63.82
2023-04-15T15:01:37.125Z,64.29
2023-04-15T15:04:07.028Z,64.29
2023-04-15T15:06:37.352Z,64.31
2023-04-15T15:09:06.212Z,64.72
2023-04-15T15:11:35.224Z,64.87
2023-04-15T15:14:03.500Z,64.87
2023-04-15T15:16:32.475Z,64.69
2023-04-15T15:19:01.166Z,64.68
2023-04-15T15:21:31.987Z,65.04
2023-04-15T15:24:01.629Z,64.38
2023-04-15T15:26:30.579Z,64.49
2023-04-15T15:28:58.952Z,64.58
2023-04-15T15:31:27.994Z,64.81
2023-04-15T15:33:56.796Z,65.00
2023-04-15T15:36:27.356Z,64.64
2023-04-15T15:38:57.308Z,64.96
2023-04-15T15:41:27.009Z,65.29
2023-04-15T15:43:56.086Z,65.29
2023-04-15T15:46:25.175Z,65.45
2023-04-15T15:48:53.851Z,64.99
2023-04-15T15:51:22.740Z,65.29
2023-04-15T15:53:51.657Z,65.76
2023-04-15T15:56:21.745Z,65.71
2023-04-15T15:58:50.433Z,65.57
2023-04-15T16:01:18.901Z,66.13
2023-04-15T16:03:47.911Z,66.36
2023-04-15T16:06:16.813Z,66.44
2023-04-15T16:08:45.660Z,66.36
2023-04-15T16:11:14.068Z,66.96
2023-04-15T16:13:44.072Z,66.41
2023-04-15T16:16:12.532Z,67.42
2023-04-15T16:18:41.995Z,67.48
2023-04-15T16:21:10.642Z,67.34
2023-04-15T16:23:40.208Z,69.46
2023-04-15T16:26:08.642Z,67.72
2023-04-15T16:28:37.394Z,68.41
2023-04-15T16:31:07.648Z,68.86
2023-04-15T16:33:36.484Z,69.00
2023-04-15T16:36:05.525Z,69.29
2023-04-15T16:38:34.615Z,69.30
2023-04-15T16:41:03.622Z,68.95
2023-04-15T16:43:32.390Z,69.19
2023-04-15T16:46:00.749Z,69.20
2023-04-15T16:48:31.259Z,69.39
2023-04-15T16:50:59.893Z,69.77
2023-04-15T16:53:28.664Z,69.77
2023-04-15T16:55:58.058Z,69.98
2023-04-15T16:58:27.872Z,70.01
2023-04-15T17:00:56.740Z,69.53
2023-04-15T17:03:26.999Z,70.17
2023-04-15T17:05:57.347Z,69.47
2023-04-15T17:08:26.083Z,69.73
2023-04-15T17:10:55.316Z,69.93
2023-04-15T17:13:24.378Z,69.42
2023-04-15T17:15:55.133Z,69.51
2023-04-15T17:18:24.929Z,70.00
2023-04-15T17:20:53.307Z,70.19
2023-04-15T17:23:23.881Z,69.16
2023-04-15T17:25:52.754Z,70.50
2023-04-15T17:28:21.859Z,70.18
2023-04-15T17:30:50.897Z,69.86
2023-04-15T17:33:56.175Z,70.13
2023-04-15T17:36:08.915Z,69.33
2023-04-15T17:38:41.824Z,69.92
2023-04-15T17:41:10.284Z,69.29
2023-04-15T17:43:39.290Z,70.56
2023-04-15T17:46:08.395Z,69.98
2023-04-15T17:48:37.960Z,70.12
2023-04-15T17:51:06.442Z,70.42
2023-04-15T17:53:35.195Z,70.20
2023-04-15T17:56:05.296Z,70.41
2023-04-15T17:58:34.343Z,70.21
2023-04-15T18:01:03.124Z,70.53
2023-04-15T18:03:31.861Z,69.59
2023-04-15T18:06:01.397Z,70.52
2023-04-15T18:08:30.316Z,70.32
2023-04-15T18:10:59.250Z,70.97
2023-04-15T18:13:29.674Z,70.21
2023-04-15T18:15:58.161Z,69.84
2023-04-15T18:18:27.176Z,69.87
2023-04-15T18:20:55.600Z,69.69
2023-04-15T18:23:24.316Z,69.48
2023-04-15T18:25:52.618Z,69.37
2023-04-15T18:28:23.691Z,69.34
2023-04-15T18:30:54.804Z,69.71
2023-04-15T18:33:25.197Z,70.00
2023-04-15T18:35:53.678Z,70.18
2023-04-15T18:38:22.501Z,70.27
2023-04-15T18:40:50.916Z,70.13
2023-04-15T18:43:20.406Z,70.00
2023-04-15T18:45:49.146Z,69.97
2023-04-15T18:48:19.430Z,70.05
2023-04-15T18:50:48.188Z,70.40
2023-04-15T18:53:17.290Z,71.01
2023-04-15T18:55:45.718Z,70.76
2023-04-15T18:58:14.457Z,70.83
2023-04-15T19:00:43.983Z,70.64
2023-04-15T19:03:12.853Z,71.60
2023-04-15T19:05:43.013Z,72.00
2023-04-15T19:08:12.529Z,71.71
2023-04-15T19:10:41.274Z,71.37
2023-04-15T19:13:10.026Z,72.06
2023-04-15T19:15:38.380Z,71.48
2023-04-15T19:18:10.655Z,71.84
2023-04-15T19:20:40.323Z,71.96
2023-04-15T19:23:12.740Z,71.99
2023-04-15T19:25:41.554Z,72.22
2023-04-15T19:28:10.586Z,72.21
2023-04-15T19:30:39.139Z,72.43
2023-04-15T19:33:07.971Z,73.06
2023-04-15T19:35:36.466Z,72.26
2023-04-15T19:38:06.918Z,72.49
2023-04-15T19:40:36.752Z,73.19
2023-04-15T19:43:05.861Z,73.12
2023-04-15T19:45:35.685Z,73.39
2023-04-15T19:48:06.248Z,73.20
2023-04-15T19:50:34.906Z,73.00
2023-04-15T19:53:04.121Z,73.20
2023-04-15T19:55:32.706Z,73.23
2023-04-15T19:58:03.208Z,73.88
2023-04-15T20:00:32.579Z,73.20
2023-04-15T20:03:01.605Z,74.74
2023-04-15T20:05:30.122Z,73.84
2023-04-15T20:07:59.892Z,73.57
2023-04-15T20:10:28.391Z,74.15
2023-04-15T20:12:57.161Z,74.60
2023-04-15T20:15:28.153Z,73.99
2023-04-15T20:17:57.153Z,74.11
2023-04-15T20:20:25.636Z,74.85
2023-04-15T20:22:54.608Z,74.30
2023-04-15T20:25:22.986Z,75.01
2023-04-15T20:27:51.718Z,73.89
2023-04-15T20:30:20.282Z,74.16
2023-04-15T20:32:50.758Z,74.46
2023-04-15T20:35:19.938Z,73.98
2023-04-15T20:37:50.816Z,74.75
2023-04-15T20:40:19.337Z,74.01
2023-04-15T20:42:48.048Z,74.47
2023-04-15T20:45:16.650Z,75.00
2023-04-15T20:47:45.485Z,74.49
2023-04-15T20:50:16.011Z,74.98
2023-04-15T20:52:45.510Z,75.19
2023-04-15T20:55:14.135Z,74.82
2023-04-15T20:57:43.162Z,74.33
2023-04-15T21:00:12.387Z,74.86
2023-04-15T21:02:41.432Z,74.66
2023-04-15T21:05:10.290Z,74.94
2023-04-15T21:07:41.396Z,75.24
2023-04-15T21:10:10.756Z,75.56
2023-04-15T21:12:41.180Z,74.48
2023-04-15T21:15:10.922Z,74.46
2023-04-15T21:17:40.113Z,74.99
2023-04-15T21:20:09.978Z,75.20
2023-04-15T21:22:40.614Z,74.67
2023-04-15T21:25:10.161Z,74.85
2023-04-15T21:27:39.554Z,75.03
2023-04-15T21:30:09.117Z,73.99
2023-04-15T21:32:37.942Z,74.45
2023-04-15T21:35:07.840Z,74.19
2023-04-15T21:37:37.632Z,74.26
2023-04-15T21:40:09.487Z,74.74
2023-04-15T21:42:38.322Z,73.77
2023-04-15T21:45:08.081Z,74.88
2023-04-15T21:48:04.585Z,74.99
2023-04-15T21:50:25.625Z,73.54
2023-04-15T21:52:54.448Z,75.04
2023-04-15T21:55:24.559Z,74.38
2023-04-15T21:57:53.276Z,74.04
2023-04-15T22:00:23.263Z,74.46
2023-04-15T22:02:53.110Z,74.32
2023-04-15T22:05:22.097Z,75.13
2023-04-15T22:07:50.830Z,74.41
2023-04-15T22:10:19.687Z,74.24
2023-04-15T22:12:50.105Z,74.23
2023-04-15T22:15:18.514Z,74.79
2023-04-15T22:17:47.582Z,73.82
2023-04-15T22:20:16.094Z,73.90
2023-04-15T22:22:45.422Z,74.42
2023-04-15T22:25:13.989Z,73.54
2023-04-15T22:27:42.961Z,74.00
2023-04-15T22:30:14.359Z,74.31
2023-04-15T22:32:43.928Z,72.99
2023-04-15T22:35:12.501Z,73.93
2023-04-15T22:37:41.279Z,74.38
2023-04-15T22:40:11.105Z,72.82
2023-04-15T22:42:40.032Z,73.60
2023-04-15T22:45:09.626Z,74.52
2023-04-15T22:47:39.579Z,74.88
2023-04-15T22:50:09.423Z,75.16
2023-04-15T22:52:38.363Z,74.49
2023-04-15T22:55:07.930Z,74.58
2023-04-15T22:57:36.756Z,74.44
2023-04-15T23:00:05.908Z,74.10
2023-04-15T23:02:34.995Z,74.04
2023-04-15T23:05:12.549Z,73.86
2023-04-15T23:07:42.297Z,73.25
2023-04-15T23:10:11.331Z,75.19
2023-04-15T23:12:40.331Z,75.31
2023-04-15T23:15:10.210Z,73.40
2023-04-15T23:17:38.981Z,73.79
2023-04-15T23:20:09.838Z,74.73
2023-04-15T23:22:38.740Z,74.28
2023-04-15T23:25:07.608Z,74.45
2023-04-15T23:27:37.232Z,74.64
2023-04-15T23:30:06.546Z,74.42
2023-04-15T23:32:35.715Z,74.35
2023-04-15T23:35:04.174Z,74.59
2023-04-15T23:37:34.597Z,74.45
2023-04-15T23:40:02.976Z,73.66
2023-04-15T23:42:31.978Z,74.83
2023-04-15T23:45:00.610Z,74.02
2023-04-15T23:47:29.625Z,75.25
2023-04-15T23:49:58.054Z,75.07
2023-04-15T23:52:28.338Z,74.36
2023-04-15T23:54:58.408Z,76.19
2023-04-15T23:57:27.394Z,75.18
2023-04-15T23:59:56.355Z,74.89
